createdAt,value
2022-11-10T00:00:23.758Z,77.45
2022-11-10T00:01:55.722Z,77.26
2022-11-10T00:03:28.665Z,77.24
2022-11-10T00:05:00.474Z,77.25
2022-11-10T00:06:32.352Z,77.51
2022-11-10T00:08:05.276Z,77.52
2022-11-10T00:09:37.164Z,77.66
2022-11-10T00:11:09.058Z,77.46
2022-11-10T00:12:40.932Z,77.52
2022-11-10T00:14:31.059Z,77.69
2022-11-10T00:16:22.237Z,77.52
2022-11-10T00:17:54.040Z,77.38
2022-11-10T00:19:25.888Z,77.76
2022-11-10T00:21:02.424Z,77.80
2022-11-10T00:22:34.611Z,77.63
2022-11-10T00:25:39.227Z,77.72
2022-11-10T00:27:11.384Z,77.89
2022-11-10T00:28:43.702Z,77.62
2022-11-10T00:30:15.540Z,77.78
2022-11-10T00:31:47.405Z,77.49
2022-11-10T00:33:19.665Z,77.86
2022-11-10T00:34:52.042Z,77.74
2022-11-10T00:36:24.204Z,77.88
2022-11-10T00:37:55.988Z,77.57
2022-11-10T00:39:27.954Z,77.39
2022-11-10T00:41:00.702Z,77.33
2022-11-10T00:42:32.646Z,77.62
2022-11-10T00:44:04.602Z,77.55
2022-11-10T00:45:36.477Z,77.85
2022-11-10T00:47:08.261Z,77.75
2022-11-10T00:48:40.134Z,77.54
2022-11-10T00:50:11.955Z,77.59
2022-11-10T00:51:43.775Z,77.36
2022-11-10T00:53:15.812Z,77.40
2022-11-10T00:54:47.678Z,77.55
2022-11-10T00:56:19.713Z,77.66
2022-11-10T00:57:51.503Z,77.77
2022-11-10T00:59:23.493Z,77.86
2022-11-10T01:01:04.787Z,77.77
2022-11-10T01:02:36.739Z,77.80
2022-11-10T01:04:08.648Z,77.81
2022-11-10T01:05:40.504Z,78.04
2022-11-10T01:07:12.443Z,77.94
2022-11-10T01:08:44.385Z,77.95
2022-11-10T01:10:16.520Z,78.01
2022-11-10T01:11:48.382Z,77.78
2022-11-10T01:13:20.543Z,77.82
2022-11-10T01:15:08.271Z,78.07
2022-11-10T01:16:40.068Z,78.09
2022-11-10T01:18:11.988Z,78.05
2022-11-10T01:19:44.064Z,77.99
2022-11-10T01:21:15.987Z,77.82
2022-11-10T01:24:21.976Z,77.69
2022-11-10T01:25:57.243Z,77.67
2022-11-10T01:27:29.051Z,77.78
2022-11-10T01:29:00.904Z,77.98
2022-11-10T01:30:32.734Z,78.18
2022-11-10T01:32:04.607Z,78.31
2022-11-10T01:33:36.592Z,78.01
2022-11-10T01:35:08.652Z,77.85
2022-11-10T01:36:40.492Z,77.45
2022-11-10T01:38:12.347Z,77.38
2022-11-10T01:39:44.251Z,77.33
2022-11-10T01:41:16.139Z,77.52
2022-11-10T01:42:55.764Z,77.51
2022-11-10T01:44:27.634Z,77.33
2022-11-10T01:46:03.186Z,77.16
2022-11-10T01:47:34.983Z,77.04
2022-11-10T01:49:06.817Z,77.49
2022-11-10T01:50:39.936Z,77.39
2022-11-10T01:52:12.523Z,77.64
2022-11-10T01:53:45.030Z,77.62
2022-11-10T01:55:16.850Z,77.91
2022-11-10T01:58:25.998Z,78.03
2022-11-10T01:59:57.777Z,77.93
2022-11-10T02:01:29.857Z,77.89
2022-11-10T02:03:02.983Z,77.87
2022-11-10T02:04:34.889Z,78.04
2022-11-10T02:06:07.280Z,78.11
2022-11-10T02:07:39.383Z,78.03
2022-11-10T02:09:11.364Z,78.17
2022-11-10T02:10:43.156Z,78.09
2022-11-10T02:12:15.095Z,77.97
2022-11-10T02:13:47.077Z,77.99
2022-11-10T02:15:18.954Z,78.00
2022-11-10T02:16:50.745Z,78.13
2022-11-10T02:18:22.560Z,78.04
2022-11-10T02:19:54.317Z,78.14
2022-11-10T02:21:26.216Z,77.89
2022-11-10T02:22:58.011Z,77.97
2022-11-10T02:24:29.835Z,78.04
2022-11-10T02:26:02.431Z,78.50
2022-11-10T02:27:34.426Z,78.46
2022-11-10T02:29:06.235Z,78.50
2022-11-10T02:30:38.122Z,78.62
2022-11-10T02:32:09.916Z,78.62
2022-11-10T02:33:41.874Z,78.50
2022-11-10T02:35:13.639Z,78.33
2022-11-10T02:36:45.448Z,78.23
2022-11-10T02:38:18.178Z,78.11
2022-11-10T02:39:50.139Z,78.04
2022-11-10T02:41:22.227Z,78.26
2022-11-10T02:42:54.046Z,78.31
2022-11-10T02:44:26.051Z,78.20
2022-11-10T02:45:57.912Z,77.92
2022-11-10T02:47:29.781Z,78.02
2022-11-10T02:49:01.549Z,77.40
2022-11-10T02:50:33.394Z,77.28
2022-11-10T02:52:05.318Z,77.48
2022-11-10T02:53:37.094Z,77.96
2022-11-10T02:55:09.142Z,78.06
2022-11-10T02:58:13.822Z,77.75
2022-11-10T02:59:45.657Z,77.70
2022-11-10T03:01:17.435Z,77.85
2022-11-10T03:02:49.288Z,78.17
2022-11-10T03:04:21.129Z,78.09
2022-11-10T03:05:52.984Z,78.23
2022-11-10T03:07:24.825Z,78.04
2022-11-10T03:08:56.950Z,78.00
2022-11-10T03:10:29.219Z,77.96
2022-11-10T03:12:01.104Z,77.80
2022-11-10T03:13:51.815Z,77.80
2022-11-10T03:15:24.926Z,78.08
2022-11-10T03:16:56.746Z,78.31
2022-11-10T03:18:28.574Z,78.53
2022-11-10T03:20:00.345Z,78.55
2022-11-10T03:21:32.188Z,78.51
2022-11-10T03:23:04.443Z,78.61
2022-11-10T03:24:36.234Z,78.52
2022-11-10T03:27:40.835Z,78.57
2022-11-10T03:29:12.704Z,78.70
2022-11-10T03:30:45.547Z,78.81
2022-11-10T03:32:17.361Z,78.83
2022-11-10T03:33:49.231Z,79.07
2022-11-10T03:35:21.021Z,78.70
2022-11-10T03:36:52.917Z,78.09
2022-11-10T03:38:24.808Z,77.86
2022-11-10T03:39:56.724Z,77.26
2022-11-10T03:41:28.517Z,77.47
2022-11-10T03:43:00.336Z,77.47
2022-11-10T03:44:32.135Z,77.64
2022-11-10T03:46:03.973Z,77.78
2022-11-10T03:47:35.827Z,78.17
2022-11-10T03:49:07.665Z,78.04
2022-11-10T03:50:39.532Z,78.16
2022-11-10T03:52:11.317Z,78.10
2022-11-10T03:53:43.152Z,78.49
2022-11-10T03:55:16.140Z,78.71
2022-11-10T03:56:47.970Z,78.33
2022-11-10T03:58:19.759Z,78.11
2022-11-10T03:59:51.600Z,78.41
2022-11-10T04:01:24.172Z,78.24
2022-11-10T04:02:56.076Z,78.69
2022-11-10T04:04:46.391Z,78.51
2022-11-10T04:06:37.196Z,78.62
2022-11-10T04:08:32.061Z,78.66
2022-11-10T04:10:06.874Z,78.29
2022-11-10T04:11:57.387Z,78.28
2022-11-10T04:13:47.416Z,78.16
2022-11-10T04:15:37.559Z,77.93
2022-11-10T04:17:10.011Z,78.07
2022-11-10T04:18:42.662Z,77.99
2022-11-10T04:20:14.557Z,77.69
2022-11-10T04:21:46.412Z,77.82
2022-11-10T04:23:27.168Z,78.05
2022-11-10T04:28:34.882Z,77.86
2022-11-10T04:30:06.869Z,77.95
2022-11-10T04:31:39.720Z,77.99
2022-11-10T04:33:11.522Z,78.00
2022-11-10T04:34:43.403Z,77.85
2022-11-10T04:36:16.285Z,77.76
2022-11-10T04:37:48.194Z,77.76
2022-11-10T04:39:20.031Z,77.66
2022-11-10T04:40:52.071Z,77.87
2022-11-10T04:42:23.952Z,77.98
2022-11-10T04:43:56.045Z,77.98
2022-11-10T04:45:27.827Z,78.02
2022-11-10T04:46:59.731Z,78.14
2022-11-10T04:48:31.762Z,78.48
2022-11-10T04:50:03.861Z,78.40
2022-11-10T04:51:36.842Z,78.46
2022-11-10T04:53:08.788Z,78.50
2022-11-10T04:54:40.881Z,78.48
2022-11-10T04:56:14.432Z,78.55
2022-11-10T04:57:46.292Z,78.95
2022-11-10T04:59:18.178Z,79.19
2022-11-10T05:00:50.050Z,78.84
2022-11-10T05:02:21.958Z,78.89
2022-11-10T05:03:57.127Z,78.70
2022-11-10T05:05:28.954Z,78.85
2022-11-10T05:07:00.852Z,78.69
2022-11-10T05:08:32.838Z,78.83
2022-11-10T05:10:05.014Z,78.86
2022-11-10T05:11:36.898Z,79.04
2022-11-10T05:13:08.726Z,78.97
2022-11-10T05:14:40.704Z,78.44
2022-11-10T05:16:12.942Z,78.36
2022-11-10T05:17:47.998Z,78.43
2022-11-10T05:19:19.872Z,78.41
2022-11-10T05:20:53.682Z,78.45
2022-11-10T05:22:25.526Z,78.35
2022-11-10T05:24:00.532Z,78.40
2022-11-10T05:25:33.728Z,78.46
2022-11-10T05:27:05.660Z,78.60
2022-11-10T05:28:37.975Z,78.39
2022-11-10T05:30:10.106Z,78.18
2022-11-10T05:31:41.953Z,78.58
2022-11-10T05:33:13.889Z,78.60
2022-11-10T05:34:45.832Z,78.80
2022-11-10T05:36:17.625Z,78.68
2022-11-10T05:37:49.601Z,78.64
2022-11-10T05:39:21.557Z,78.47
2022-11-10T05:40:53.651Z,78.50
2022-11-10T05:42:26.364Z,78.85
2022-11-10T05:43:58.233Z,78.87
2022-11-10T05:45:30.307Z,79.35
2022-11-10T05:47:02.260Z,79.70
2022-11-10T05:48:34.127Z,79.83
2022-11-10T05:50:06.730Z,79.96
2022-11-10T05:51:38.692Z,79.90
2022-11-10T05:53:10.694Z,80.19
2022-11-10T05:54:42.597Z,80.36
2022-11-10T05:56:14.486Z,80.56
2022-11-10T05:57:47.203Z,80.54
2022-11-10T05:59:19.183Z,80.60
2022-11-10T06:00:51.223Z,80.85
2022-11-10T06:02:23.107Z,80.52
2022-11-10T06:03:55.060Z,80.73
2022-11-10T06:05:31.145Z,80.76
2022-11-10T06:07:03.451Z,80.66
2022-11-10T06:08:35.491Z,80.64
2022-11-10T06:10:07.750Z,80.48
2022-11-10T06:11:39.838Z,80.56
2022-11-10T06:13:11.755Z,80.62
2022-11-10T06:14:43.617Z,80.74
2022-11-10T06:16:15.532Z,80.74
2022-11-10T06:17:47.583Z,80.86
2022-11-10T06:19:19.456Z,81.04
2022-11-10T06:20:51.280Z,81.10
2022-11-10T06:22:23.138Z,81.22
2022-11-10T06:23:55.231Z,81.20
2022-11-10T06:25:27.555Z,81.33
2022-11-10T06:26:59.474Z,81.26
2022-11-10T06:28:31.476Z,81.41
2022-11-10T06:30:04.027Z,81.44
2022-11-10T06:31:35.923Z,81.63
2022-11-10T06:33:07.808Z,81.44
2022-11-10T06:34:39.727Z,81.61
2022-11-10T06:36:12.819Z,81.94
2022-11-10T06:37:44.741Z,82.11
2022-11-10T06:39:16.721Z,82.08
2022-11-10T06:40:48.617Z,82.36
2022-11-10T06:42:20.593Z,82.50
2022-11-10T06:43:52.446Z,82.42
2022-11-10T06:45:25.294Z,82.56
2022-11-10T06:46:57.327Z,82.75
2022-11-10T06:48:29.174Z,82.75
2022-11-10T06:50:01.016Z,82.58
2022-11-10T06:51:33.201Z,82.71
2022-11-10T06:54:37.236Z,82.57
2022-11-10T06:56:09.525Z,82.53
2022-11-10T06:57:41.663Z,82.51
2022-11-10T06:59:13.656Z,82.37
2022-11-10T07:00:45.688Z,82.38
2022-11-10T07:02:17.762Z,82.20
2022-11-10T07:04:17.811Z,82.14
2022-11-10T07:05:41.611Z,82.20
2022-11-10T07:07:14.712Z,81.87
2022-11-10T07:08:46.870Z,81.81
2022-11-10T07:10:18.744Z,81.62
2022-11-10T07:11:51.176Z,81.47
2022-11-10T07:13:23.657Z,81.36
2022-11-10T07:14:55.911Z,81.17
2022-11-10T07:16:28.009Z,81.14
2022-11-10T07:18:00.029Z,81.34
2022-11-10T07:19:32.889Z,81.24
2022-11-10T07:21:06.126Z,81.06
2022-11-10T07:22:38.560Z,80.99
2022-11-10T07:24:10.448Z,81.00
2022-11-10T07:25:42.332Z,80.77
2022-11-10T07:27:14.411Z,80.87
2022-11-10T07:28:46.520Z,80.80
2022-11-10T07:30:18.530Z,80.64
2022-11-10T07:31:50.683Z,80.29
2022-11-10T07:33:22.638Z,80.18
2022-11-10T07:34:54.761Z,79.91
2022-11-10T07:36:29.256Z,80.03
2022-11-10T07:38:08.131Z,79.71
2022-11-10T07:39:40.354Z,79.67
2022-11-10T07:41:12.485Z,79.68
2022-11-10T07:42:44.461Z,79.97
2022-11-10T07:44:16.391Z,80.04
2022-11-10T07:45:49.688Z,79.90
2022-11-10T07:47:21.620Z,79.85
2022-11-10T07:48:53.609Z,79.55
2022-11-10T07:50:25.623Z,79.51
2022-11-10T07:51:59.538Z,79.66
2022-11-10T07:53:31.540Z,79.43
2022-11-10T07:55:03.698Z,79.03
2022-11-10T07:56:35.635Z,78.94
2022-11-10T07:58:08.093Z,78.96
2022-11-10T07:59:40.048Z,78.82
2022-11-10T08:01:12.412Z,78.57
2022-11-10T08:02:44.568Z,78.17
2022-11-10T08:04:16.834Z,77.99
2022-11-10T08:05:49.192Z,78.04
2022-11-10T08:07:21.269Z,78.14
2022-11-10T08:08:53.413Z,77.84
2022-11-10T08:10:25.453Z,77.91
2022-11-10T08:11:57.468Z,77.85
2022-11-10T08:13:29.633Z,77.71
2022-11-10T08:15:01.495Z,77.41
2022-11-10T08:16:34.069Z,77.21
2022-11-10T08:18:07.262Z,76.98
2022-11-10T08:19:39.145Z,77.04
2022-11-10T08:21:11.036Z,76.82
2022-11-10T08:22:43.068Z,76.62
2022-11-10T08:24:14.981Z,76.45
2022-11-10T08:25:48.151Z,76.42
2022-11-10T08:27:20.115Z,76.35
2022-11-10T08:28:51.952Z,75.96
2022-11-10T08:30:23.858Z,75.85
2022-11-10T08:31:55.722Z,75.52
2022-11-10T08:33:27.813Z,75.28
2022-11-10T08:34:59.880Z,75.10
2022-11-10T08:36:32.165Z,75.02
2022-11-10T08:38:09.487Z,74.79
2022-11-10T08:39:41.976Z,74.34
2022-11-10T08:41:14.014Z,74.32
2022-11-10T08:42:46.180Z,74.24
2022-11-10T08:44:20.730Z,73.67
2022-11-10T08:45:54.900Z,73.29
2022-11-10T08:47:27.054Z,73.42
2022-11-10T08:48:58.930Z,73.24
2022-11-10T08:50:31.179Z,73.14
2022-11-10T08:52:03.306Z,72.57
2022-11-10T08:53:35.716Z,72.31
2022-11-10T08:55:07.872Z,72.14
2022-11-10T08:56:40.098Z,71.96
2022-11-10T08:58:12.937Z,71.78
2022-11-10T08:59:44.831Z,71.37
2022-11-10T09:01:16.909Z,71.13
2022-11-10T09:02:48.830Z,71.03
2022-11-10T09:04:21.213Z,69.99
2022-11-10T09:05:57.914Z,69.75
2022-11-10T09:07:31.631Z,69.62
2022-11-10T09:09:03.898Z,70.23
2022-11-10T09:10:40.040Z,70.35
2022-11-10T09:12:12.064Z,70.01
2022-11-10T09:13:44.414Z,69.95
2022-11-10T09:15:16.628Z,69.15
2022-11-10T09:16:48.526Z,69.33
2022-11-10T09:18:20.632Z,68.67
2022-11-10T09:19:52.806Z,68.25
2022-11-10T09:21:24.846Z,68.40
2022-11-10T09:24:31.489Z,67.79
2022-11-10T09:26:06.655Z,67.66
2022-11-10T09:27:39.353Z,67.02
2022-11-10T09:29:11.277Z,67.29
2022-11-10T09:30:43.514Z,66.71
2022-11-10T09:32:15.490Z,66.75
2022-11-10T09:33:47.411Z,66.80
2022-11-10T09:35:19.539Z,66.88
2022-11-10T09:36:51.647Z,66.97
2022-11-10T09:38:24.153Z,65.51
2022-11-10T09:40:01.060Z,64.64
2022-11-10T09:41:33.420Z,64.32
2022-11-10T09:43:05.436Z,64.42
2022-11-10T09:44:39.425Z,63.33
2022-11-10T09:46:40.756Z,63.51
2022-11-10T09:48:25.243Z,63.08
2022-11-10T09:49:58.281Z,61.99
2022-11-10T09:51:32.623Z,62.53
2022-11-10T09:53:04.784Z,62.37
2022-11-10T09:54:41.047Z,62.32
2022-11-10T09:56:15.065Z,61.59
2022-11-10T09:57:48.985Z,62.02
2022-11-10T09:59:24.726Z,61.76
2022-11-10T10:01:17.256Z,61.31
2022-11-10T10:02:51.277Z,60.87
2022-11-10T10:04:30.198Z,61.13
2022-11-10T10:06:15.869Z,60.95
2022-11-10T10:09:30.818Z,60.37
2022-11-10T10:11:05.675Z,60.74
2022-11-10T10:12:37.626Z,60.96
2022-11-10T10:14:32.650Z,60.55
2022-11-10T10:16:16.993Z,60.29
2022-11-10T10:17:48.890Z,60.49
2022-11-10T10:19:25.175Z,59.98
2022-11-10T10:21:02.657Z,59.18
2022-11-10T10:22:53.619Z,58.86
2022-11-10T10:24:28.039Z,59.18
2022-11-10T10:25:59.991Z,58.54
2022-11-10T10:27:31.923Z,57.65
2022-11-10T10:29:07.870Z,57.76
2022-11-10T10:30:40.512Z,57.46
2022-11-10T10:32:13.393Z,58.16
2022-11-10T10:33:45.786Z,58.48
2022-11-10T10:35:18.363Z,58.59
2022-11-10T10:38:34.480Z,58.05
2022-11-10T10:40:07.040Z,57.38
2022-11-10T10:41:39.196Z,57.31
2022-11-10T10:43:11.492Z,57.68
2022-11-10T10:45:03.825Z,57.24
2022-11-10T10:46:43.484Z,57.58
2022-11-10T10:48:26.054Z,56.72
2022-11-10T10:50:10.645Z,56.92
2022-11-10T10:51:43.252Z,56.54
2022-11-10T10:53:19.361Z,56.22
2022-11-10T10:54:59.846Z,55.45
2022-11-10T10:56:32.772Z,55.67
2022-11-10T10:58:06.395Z,55.59
2022-11-10T10:59:38.539Z,54.82
2022-11-10T11:01:16.712Z,54.25
2022-11-10T11:03:04.810Z,54.37
2022-11-10T11:04:37.547Z,54.69
2022-11-10T11:06:15.340Z,55.09
2022-11-10T11:08:00.856Z,54.52
2022-11-10T11:09:42.688Z,53.73
2022-11-10T11:11:14.608Z,54.73
2022-11-10T11:12:46.591Z,54.28
2022-11-10T11:14:21.477Z,53.93
2022-11-10T11:16:00.788Z,53.20
2022-11-10T11:17:33.063Z,53.26
2022-11-10T11:19:05.388Z,52.80
2022-11-10T11:20:38.467Z,53.47
2022-11-10T11:22:10.429Z,52.95
2022-11-10T11:23:52.123Z,52.91
2022-11-10T11:25:32.825Z,52.71
2022-11-10T11:27:23.156Z,52.52
2022-11-10T11:29:10.576Z,52.44
2022-11-10T11:30:54.657Z,51.58
2022-11-10T11:32:45.316Z,52.07
2022-11-10T11:34:20.061Z,51.88
2022-11-10T11:35:59.190Z,52.78
2022-11-10T11:37:42.940Z,52.96
2022-11-10T11:39:21.047Z,51.63
2022-11-10T11:41:11.681Z,52.14
2022-11-10T11:42:46.528Z,51.57
2022-11-10T11:44:21.379Z,51.76
2022-11-10T11:45:55.651Z,51.87
2022-11-10T11:47:37.186Z,51.33
2022-11-10T11:49:10.752Z,51.28
2022-11-10T11:50:56.012Z,51.29
2022-11-10T11:52:29.883Z,51.77
2022-11-10T11:54:29.528Z,51.36
2022-11-10T11:56:07.826Z,51.46
2022-11-10T11:57:46.312Z,51.70
2022-11-10T11:59:18.254Z,51.34
2022-11-10T12:00:57.207Z,50.95
2022-11-10T12:02:33.645Z,50.82
2022-11-10T12:04:34.928Z,51.31
2022-11-10T12:06:16.378Z,51.36
2022-11-10T12:07:48.521Z,50.91
2022-11-10T12:09:38.875Z,51.68
2022-11-10T12:11:21.844Z,51.31
2022-11-10T12:13:03.018Z,51.61
2022-11-10T12:14:47.480Z,50.49
2022-11-10T12:16:32.465Z,50.83
2022-11-10T12:18:04.706Z,50.49
2022-11-10T12:19:39.510Z,50.12
2022-11-10T12:21:11.543Z,50.12
2022-11-10T12:23:01.654Z,50.27
2022-11-10T12:24:54.600Z,50.27
2022-11-10T12:26:35.913Z,50.45
2022-11-10T12:28:13.350Z,49.89
2022-11-10T12:29:47.121Z,49.74
2022-11-10T12:31:21.701Z,50.04
2022-11-10T12:33:04.121Z,49.99
2022-11-10T12:36:14.405Z,50.78
2022-11-10T12:38:04.653Z,50.29
2022-11-10T12:39:53.772Z,50.59
2022-11-10T12:41:26.576Z,50.88
2022-11-10T12:43:02.649Z,50.83
2022-11-10T12:44:34.913Z,51.27
2022-11-10T12:46:08.711Z,51.21
2022-11-10T12:47:43.941Z,51.40
2022-11-10T12:49:35.874Z,50.57
2022-11-10T12:51:09.805Z,50.57
2022-11-10T12:52:46.004Z,50.88
2022-11-10T12:54:18.445Z,50.18
2022-11-10T12:55:51.709Z,50.44
2022-11-10T12:57:24.256Z,50.61
2022-11-10T12:59:35.735Z,50.98
2022-11-10T13:01:14.675Z,51.07
2022-11-10T13:02:46.973Z,51.10
2022-11-10T13:04:19.544Z,51.05
2022-11-10T13:05:58.690Z,50.71
2022-11-10T13:35:29.047Z,51.36
2022-11-10T13:37:01.185Z,51.37
2022-11-10T13:38:34.795Z,51.10
2022-11-10T13:40:24.881Z,51.12
2022-11-10T13:42:01.137Z,51.46
2022-11-10T13:43:33.184Z,51.67
2022-11-10T13:45:25.843Z,52.01
2022-11-10T13:47:18.082Z,51.97
2022-11-10T13:49:12.936Z,52.51
2022-11-10T13:51:25.652Z,52.79
2022-11-10T13:53:00.566Z,52.97
2022-11-10T13:54:38.002Z,52.97
2022-11-10T13:56:28.751Z,53.21
2022-11-10T13:58:04.611Z,52.96
2022-11-10T13:59:44.634Z,53.13
2022-11-10T14:01:19.562Z,53.22
2022-11-10T14:02:52.959Z,53.15
2022-11-10T14:04:51.463Z,53.39
2022-11-10T14:06:31.897Z,53.10
2022-11-10T14:08:10.007Z,53.31
2022-11-10T14:09:51.644Z,53.36
2022-11-10T14:11:25.893Z,53.51
2022-11-10T14:12:59.523Z,53.73
2022-11-10T14:14:48.101Z,54.09
2022-11-10T14:16:23.676Z,54.23
2022-11-10T14:17:56.038Z,53.85
2022-11-10T14:19:37.169Z,54.16
2022-11-10T14:21:10.882Z,54.19
2022-11-10T14:22:43.400Z,54.41
2022-11-10T14:24:16.942Z,54.71
2022-11-10T14:25:52.495Z,54.65
2022-11-10T14:27:25.876Z,54.92
2022-11-10T14:28:57.753Z,54.90
2022-11-10T14:30:33.872Z,55.03
2022-11-10T14:32:15.880Z,55.08
2022-11-10T14:33:54.772Z,55.10
2022-11-10T14:35:27.660Z,55.34
2022-11-10T14:37:00.019Z,55.46
2022-11-10T14:38:34.378Z,55.38
2022-11-10T14:40:06.574Z,55.48
2022-11-10T14:41:38.678Z,55.32
2022-11-10T14:43:26.769Z,55.69
2022-11-10T14:45:17.503Z,55.77
2022-11-10T14:46:49.583Z,55.91
2022-11-10T14:48:25.907Z,55.98
2022-11-10T14:50:27.357Z,56.09
2022-11-10T14:51:59.562Z,56.09
2022-11-10T14:53:33.842Z,56.58
2022-11-10T14:55:28.947Z,56.64
2022-11-10T14:57:00.758Z,56.83
2022-11-10T14:58:36.051Z,56.82
2022-11-10T15:00:08.949Z,56.82
2022-11-10T15:01:42.608Z,57.02
2022-11-10T15:03:15.611Z,57.04
2022-11-10T15:04:48.351Z,57.28
2022-11-10T15:06:20.338Z,57.48
2022-11-10T15:07:53.391Z,57.64
2022-11-10T15:09:27.442Z,57.92
2022-11-10T15:10:59.519Z,57.98
2022-11-10T15:12:31.643Z,58.59
2022-11-10T15:14:03.532Z,58.62
2022-11-10T15:15:35.595Z,58.68
2022-11-10T15:17:11.610Z,58.77
2022-11-10T15:18:45.973Z,58.87
2022-11-10T15:20:47.156Z,59.31
2022-11-10T15:22:31.105Z,59.54
2022-11-10T15:24:04.053Z,59.58
2022-11-10T15:25:39.371Z,59.60
2022-11-10T15:27:24.796Z,59.96
2022-11-10T15:28:56.924Z,60.18
2022-11-10T15:30:29.040Z,60.58
2022-11-10T15:33:34.871Z,60.06
2022-11-10T15:35:25.341Z,60.36
2022-11-10T15:37:10.624Z,60.37
2022-11-10T15:38:42.690Z,60.63
2022-11-10T15:40:30.717Z,60.79
2022-11-10T15:42:08.636Z,61.39
2022-11-10T15:43:40.713Z,61.53
2022-11-10T15:45:12.716Z,61.81
2022-11-10T15:46:45.145Z,61.87
2022-11-10T15:48:18.300Z,62.09
2022-11-10T15:49:50.247Z,62.24
2022-11-10T15:51:26.092Z,62.71
2022-11-10T15:52:58.533Z,62.83
2022-11-10T15:54:30.911Z,62.78
2022-11-10T15:56:02.923Z,63.05
2022-11-10T15:57:35.063Z,63.24
2022-11-10T15:59:06.901Z,63.24
2022-11-10T16:00:38.925Z,63.46
2022-11-10T16:02:18.824Z,63.56
2022-11-10T16:03:50.732Z,63.40
2022-11-10T16:05:22.890Z,63.84
2022-11-10T16:06:55.402Z,63.98
2022-11-10T16:08:27.405Z,64.12
2022-11-10T16:10:00.529Z,64.15
2022-11-10T16:11:32.628Z,64.24
2022-11-10T16:13:04.563Z,64.53
2022-11-10T16:14:36.494Z,64.57
2022-11-10T16:16:08.397Z,64.74
2022-11-10T16:19:19.451Z,65.46
2022-11-10T16:20:52.114Z,65.38
2022-11-10T16:22:24.196Z,65.60
2022-11-10T16:23:56.147Z,65.66
2022-11-10T16:25:28.111Z,65.68
2022-11-10T16:27:00.010Z,66.00
2022-11-10T16:28:31.951Z,66.08
2022-11-10T16:30:04.165Z,66.02
2022-11-10T16:31:37.272Z,66.14
2022-11-10T16:33:16.390Z,66.46
2022-11-10T16:34:48.954Z,66.59
2022-11-10T16:36:28.639Z,66.65
2022-11-10T16:38:00.498Z,66.70
2022-11-10T16:39:32.534Z,67.13
2022-11-10T16:41:04.704Z,67.13
2022-11-10T16:42:36.673Z,67.40
2022-11-10T16:44:10.430Z,67.77
2022-11-10T16:45:42.699Z,67.82
2022-11-10T16:47:16.408Z,68.47
2022-11-10T16:48:48.701Z,68.33
2022-11-10T16:50:31.849Z,68.56
2022-11-10T16:52:04.465Z,68.36
2022-11-10T16:53:36.478Z,68.17
2022-11-10T16:55:10.164Z,68.45
2022-11-10T16:56:42.199Z,68.75
2022-11-10T16:58:14.105Z,68.74
2022-11-10T16:59:49.176Z,69.01
2022-11-10T17:01:22.201Z,68.74
2022-11-10T17:02:59.330Z,68.64
2022-11-10T17:04:31.419Z,68.75
2022-11-10T17:06:03.457Z,68.80
2022-11-10T17:07:35.431Z,69.05
2022-11-10T17:09:13.917Z,69.00
2022-11-10T17:10:45.881Z,69.13
2022-11-10T17:12:17.896Z,69.18
2022-11-10T17:13:49.749Z,69.23
2022-11-10T17:15:21.680Z,69.24
2022-11-10T17:16:59.735Z,69.24
2022-11-10T17:18:31.667Z,69.04
2022-11-10T17:20:04.290Z,69.29
2022-11-10T17:21:36.650Z,69.16
2022-11-10T17:23:08.707Z,69.39
2022-11-10T17:24:40.654Z,69.49
2022-11-10T17:26:12.998Z,69.62
2022-11-10T17:27:45.307Z,70.06
2022-11-10T17:29:21.653Z,70.19
2022-11-10T17:30:54.268Z,70.37
2022-11-10T17:32:50.125Z,70.56
2022-11-10T17:34:18.302Z,70.53
2022-11-10T17:35:50.711Z,70.57
2022-11-10T17:37:22.694Z,70.67
2022-11-10T17:38:54.742Z,70.76
2022-11-10T17:40:27.417Z,70.80
2022-11-10T17:41:59.399Z,70.83
2022-11-10T17:43:31.372Z,70.76
2022-11-10T17:45:03.599Z,71.10
2022-11-10T17:48:18.847Z,71.28
2022-11-10T17:49:50.853Z,71.52
2022-11-10T17:51:23.385Z,71.44
2022-11-10T17:52:55.743Z,71.55
2022-11-10T17:54:27.898Z,71.54
2022-11-10T17:55:59.919Z,71.41
2022-11-10T17:57:31.892Z,71.44
2022-11-10T17:59:04.014Z,71.52
2022-11-10T18:00:36.163Z,71.65
2022-11-10T18:02:09.547Z,71.57
2022-11-10T18:03:42.010Z,71.44
2022-11-10T18:05:17.564Z,71.44
2022-11-10T18:06:49.932Z,71.78
2022-11-10T18:08:22.124Z,71.99
2022-11-10T18:09:54.050Z,72.17
2022-11-10T18:11:26.098Z,72.09
2022-11-10T18:12:58.225Z,72.29
2022-11-10T18:14:30.855Z,72.35
2022-11-10T18:16:02.924Z,72.13
2022-11-10T18:17:34.937Z,72.26
2022-11-10T18:19:06.926Z,71.90
2022-11-10T18:20:39.257Z,71.75
2022-11-10T18:22:11.130Z,71.63
2022-11-10T18:23:43.647Z,71.74
2022-11-10T18:25:15.589Z,71.84
2022-11-10T18:26:47.535Z,71.95
2022-11-10T18:28:19.563Z,72.06
2022-11-10T18:29:51.997Z,72.03
2022-11-10T18:31:24.992Z,72.21
2022-11-10T18:32:57.109Z,72.28
2022-11-10T18:34:29.410Z,72.01
2022-11-10T18:36:01.390Z,72.05
2022-11-10T18:37:37.985Z,72.00
2022-11-10T18:39:11.003Z,72.07
2022-11-10T18:40:43.056Z,72.25
2022-11-10T18:42:15.247Z,72.23
2022-11-10T18:43:47.331Z,72.58
2022-11-10T18:45:19.347Z,73.04
2022-11-10T18:46:51.234Z,73.38
2022-11-10T18:48:28.377Z,73.22
2022-11-10T18:50:02.040Z,73.55
2022-11-10T18:51:34.206Z,73.45
2022-11-10T18:53:06.173Z,73.62
2022-11-10T18:54:38.359Z,73.51
2022-11-10T18:56:10.250Z,73.91
2022-11-10T18:57:42.137Z,74.05
2022-11-10T18:59:17.343Z,74.21
2022-11-10T19:00:49.534Z,74.52
2022-11-10T19:02:21.716Z,74.59
2022-11-10T19:03:53.844Z,74.67
2022-11-10T19:05:25.794Z,74.77
2022-11-10T19:06:57.673Z,75.03
2022-11-10T19:08:29.821Z,75.36
2022-11-10T19:10:01.879Z,75.26
2022-11-10T19:11:34.343Z,75.15
2022-11-10T19:13:06.221Z,74.92
2022-11-10T19:14:38.295Z,74.61
2022-11-10T19:16:14.290Z,74.72
2022-11-10T19:17:46.174Z,74.08
2022-11-10T19:20:51.465Z,73.26
2022-11-10T19:22:23.461Z,73.68
2022-11-10T19:23:56.426Z,73.88
2022-11-10T19:25:28.446Z,73.88
2022-11-10T19:27:00.500Z,74.07
2022-11-10T19:28:32.393Z,74.48
2022-11-10T19:30:04.528Z,74.62
2022-11-10T19:31:36.581Z,74.58
2022-11-10T19:33:08.426Z,74.48
2022-11-10T19:34:40.494Z,74.36
2022-11-10T19:36:14.034Z,74.48
2022-11-10T19:37:45.878Z,74.61
2022-11-10T19:39:17.798Z,74.46
2022-11-10T19:40:49.767Z,74.82
2022-11-10T19:42:21.622Z,74.64
2022-11-10T19:43:53.772Z,74.88
2022-11-10T19:45:25.618Z,74.98
2022-11-10T19:46:57.531Z,74.86
2022-11-10T19:50:04.451Z,74.81
2022-11-10T19:51:36.573Z,74.78
2022-11-10T19:53:08.440Z,74.91
2022-11-10T19:54:40.757Z,75.11
2022-11-10T19:56:16.514Z,75.34
2022-11-10T19:57:48.394Z,75.01
2022-11-10T19:59:21.549Z,75.11
2022-11-10T20:00:54.447Z,75.23
2022-11-10T20:02:26.533Z,75.46
2022-11-10T20:04:00.075Z,75.83
2022-11-10T20:05:31.960Z,75.50
2022-11-10T20:07:22.559Z,75.49
2022-11-10T20:08:55.088Z,75.33
2022-11-10T20:10:27.007Z,75.46
2022-11-10T20:11:58.867Z,75.75
2022-11-10T20:13:30.769Z,75.71
2022-11-10T20:15:02.611Z,75.55
2022-11-10T20:16:34.583Z,75.44
2022-11-10T20:19:41.141Z,75.70
2022-11-10T20:21:14.555Z,75.41
2022-11-10T20:22:46.576Z,75.24
2022-11-10T20:24:18.463Z,75.32
2022-11-10T20:25:50.437Z,75.34
2022-11-10T20:27:22.404Z,75.39
2022-11-10T20:28:54.264Z,75.58
2022-11-10T20:30:26.233Z,75.79
2022-11-10T20:31:58.178Z,76.02
2022-11-10T20:33:30.528Z,75.61
2022-11-10T20:35:02.418Z,75.51
2022-11-10T20:36:34.501Z,75.74
2022-11-10T20:38:06.727Z,76.29
2022-11-10T20:39:38.575Z,76.39
2022-11-10T20:41:11.947Z,76.47
2022-11-10T20:42:43.808Z,76.75
2022-11-10T20:44:18.090Z,76.84
2022-11-10T20:45:52.285Z,76.96
